This is the latest recevied weather packets stored in our database for station/object OE6ACM-14. If no packets are shown the sender has not sent any weather packets the latest 10 day(s).
| Time | Temp. | Humidity | Pressure | Rain* | Wind** | Luminosity | Snow |
|---|---|---|---|---|---|---|---|
| 1777999201 | 18.89° C | 39% | 919 hPa | - | - | - | - |
| 1777998901 | 18.33° C | 39% | 919 hPa | - | - | - | - |
| 1777998601 | 18.33° C | 38% | 919.1 hPa | - | - | - | - |
| 1777998301 | 18.89° C | 38% | 919.2 hPa | - | - | - | - |
| 1777998001 | 18.89° C | 37% | 919.1 hPa | - | - | - | - |
| 1777997701 | 20° C | 36% | 919.2 hPa | - | - | - | - |
| 1777997401 | 20.56° C | 34% | 919.1 hPa | - | - | - | - |
| 1777997101 | 21.11° C | 34% | 919.1 hPa | - | - | - | - |
| 1777996801 | 21.67° C | 34% | 919.1 hPa | - | - | - | - |
| 1777996501 | 21.11° C | 34% | 919 hPa | - | - | - | - |
| 1777996201 | 22.78° C | 31% | 919 hPa | - | - | - | - |
| 1777995901 | 22.78° C | 33% | 918.9 hPa | - | - | - | - |
| 1777995601 | 22.78° C | 33% | 918.9 hPa | - | - | - | - |
| 1777995301 | 22.22° C | 32% | 918.9 hPa | - | - | - | - |
| 1777995001 | 22.22° C | 33% | 918.9 hPa | - | - | - | - |
| 1777994701 | 21.67° C | 34% | 919.1 hPa | - | - | - | - |
| 1777994401 | 21.67° C | 33% | 919.2 hPa | - | - | - | - |
| 1777994101 | 22.22° C | 33% | 919.1 hPa | - | - | - | - |
| 1777993801 | 21.67° C | 33% | 919.2 hPa | - | - | - | - |
| 1777993501 | 22.22° C | 33% | 919.3 hPa | - | - | - | - |
| 1777993201 | 22.78° C | 32% | 919.2 hPa | - | - | - | - |
| 1777992901 | 23.33° C | 31% | 919 hPa | - | - | - | - |
| 1777992601 | 23.33° C | 30% | 919 hPa | - | - | - | - |
| 1777992301 | 23.33° C | 31% | 918.9 hPa | - | - | - | - |
| 1777992001 | 23.89° C | 29% | 918.9 hPa | - | - | - | - |
* Rain since midnight (hover to see other rain measurements)
** Current wind speed in m/s (hover to see current wind gust speed)